createdAt,value
2023-03-28T00:00:06.767Z,94.58
2023-03-28T00:01:06.771Z,94.58
2023-03-28T00:02:06.772Z,94.69
2023-03-28T00:03:06.810Z,94.79
2023-03-28T00:04:06.801Z,94.90
2023-03-28T00:05:06.741Z,94.90
2023-03-28T00:06:06.765Z,94.90
2023-03-28T00:07:06.708Z,95.00
2023-03-28T00:08:06.683Z,95.10
2023-03-28T00:09:06.669Z,95.10
2023-03-28T00:10:06.670Z,95.31
2023-03-28T00:11:06.647Z,95.42
2023-03-28T00:12:06.682Z,95.42
2023-03-28T00:13:06.636Z,95.42
2023-03-28T00:14:06.626Z,95.31
2023-03-28T00:15:06.616Z,95.31
2023-03-28T00:16:06.660Z,95.31
2023-03-28T00:17:06.622Z,95.31
2023-03-28T00:18:06.587Z,95.36
2023-03-28T00:19:06.580Z,95.36
2023-03-28T00:20:08.702Z,95.46
2023-03-28T00:21:06.557Z,95.52
2023-03-28T00:22:06.551Z,95.52
2023-03-28T00:23:06.513Z,95.62
2023-03-28T00:24:06.534Z,95.62
2023-03-28T00:25:06.509Z,95.52
2023-03-28T00:26:06.508Z,95.52
2023-03-28T00:27:06.485Z,95.62
2023-03-28T00:28:06.479Z,95.73
2023-03-28T00:29:06.457Z,95.62
2023-03-28T00:30:06.455Z,95.52
2023-03-28T00:31:06.477Z,95.52
2023-03-28T00:32:06.447Z,95.31
2023-03-28T00:33:06.539Z,95.31
2023-03-28T00:34:06.405Z,95.42
2023-03-28T00:35:06.388Z,95.52
2023-03-28T00:36:06.421Z,95.42
2023-03-28T00:37:06.373Z,95.31
2023-03-28T00:38:06.379Z,95.31
2023-03-28T00:39:06.342Z,95.52
2023-03-28T00:40:06.345Z,95.52
2023-03-28T00:41:06.336Z,95.62
2023-03-28T00:42:06.323Z,95.52
2023-03-28T00:43:06.323Z,95.73
2023-03-28T00:44:06.340Z,95.52
2023-03-28T00:45:06.307Z,95.52
2023-03-28T00:46:09.267Z,95.52
2023-03-28T00:47:06.329Z,95.62
2023-03-28T00:48:06.287Z,95.62
2023-03-28T00:49:07.255Z,95.62
2023-03-28T00:50:06.240Z,95.52
2023-03-28T00:51:06.213Z,95.42
2023-03-28T00:52:06.226Z,95.62
2023-03-28T00:53:06.255Z,95.52
2023-03-28T00:54:06.197Z,95.62
2023-03-28T00:55:06.166Z,95.52
2023-03-28T00:56:06.171Z,95.52
2023-03-28T00:57:06.232Z,95.52
2023-03-28T00:58:06.180Z,95.73
2023-03-28T00:59:06.129Z,95.62
2023-03-28T01:00:06.128Z,95.62
2023-03-28T01:01:06.104Z,95.62
2023-03-28T01:02:06.182Z,95.62
2023-03-28T01:03:06.351Z,95.62
2023-03-28T01:04:06.083Z,95.73
2023-03-28T01:05:06.103Z,95.83
2023-03-28T01:06:06.077Z,95.83
2023-03-28T01:07:06.046Z,95.83
2023-03-28T01:08:06.051Z,95.83
2023-03-28T01:09:06.010Z,95.73
2023-03-28T01:10:06.007Z,95.73
2023-03-28T01:11:05.984Z,95.94
2023-03-28T01:12:06.052Z,95.83
2023-03-28T01:13:05.974Z,95.83
2023-03-28T01:14:05.985Z,95.83
2023-03-28T01:15:05.946Z,95.83
2023-03-28T01:16:05.998Z,95.83
2023-03-28T01:17:05.929Z,95.94
2023-03-28T01:18:05.943Z,95.94
2023-03-28T01:19:05.913Z,96.15
2023-03-28T01:20:05.938Z,96.36
2023-03-28T01:21:05.912Z,96.36
2023-03-28T01:22:05.875Z,96.36
2023-03-28T01:23:05.860Z,96.36
2023-03-28T01:24:11.297Z,96.25
2023-03-28T01:25:06.844Z,96.25
2023-03-28T01:26:05.842Z,96.25
2023-03-28T01:27:05.808Z,96.36
2023-03-28T01:28:05.808Z,96.36
2023-03-28T01:29:05.797Z,96.36
2023-03-28T01:30:05.780Z,96.46
2023-03-28T01:31:05.832Z,96.56
2023-03-28T01:32:05.781Z,96.56
2023-03-28T01:33:05.815Z,96.56
2023-03-28T01:34:05.748Z,96.56
2023-03-28T01:35:05.733Z,96.67
2023-03-28T01:36:05.786Z,96.56
2023-03-28T01:37:05.691Z,96.56
2023-03-28T01:38:05.722Z,96.67
2023-03-28T01:39:05.756Z,96.77
2023-03-28T01:40:05.688Z,96.77
2023-03-28T01:41:05.690Z,96.77
2023-03-28T01:42:05.663Z,96.77
2023-03-28T01:43:05.659Z,96.77
2023-03-28T01:44:05.699Z,96.88
2023-03-28T01:45:05.635Z,96.88
2023-03-28T01:46:05.663Z,96.77
2023-03-28T01:47:05.624Z,96.77
2023-03-28T01:48:05.626Z,96.67
2023-03-28T01:49:05.599Z,96.67
2023-03-28T01:50:05.586Z,96.56
2023-03-28T01:51:05.563Z,96.77
2023-03-28T01:52:05.568Z,96.67
2023-03-28T01:53:05.532Z,96.67
2023-03-28T01:54:05.526Z,96.77
2023-03-28T01:55:05.488Z,96.92
2023-03-28T01:56:05.517Z,96.92
2023-03-28T01:57:05.579Z,97.03
2023-03-28T01:58:05.501Z,97.13
2023-03-28T01:59:05.466Z,97.24
2023-03-28T02:00:06.245Z,97.34
2023-03-28T02:01:05.549Z,97.34
2023-03-28T02:02:05.467Z,97.34
2023-03-28T02:03:05.512Z,97.44
2023-03-28T02:04:05.443Z,97.55
2023-03-28T02:05:06.419Z,97.65
2023-03-28T02:06:05.476Z,97.65
2023-03-28T02:07:05.379Z,97.70
2023-03-28T02:08:05.370Z,97.80
2023-03-28T02:09:05.350Z,97.80
2023-03-28T02:10:05.354Z,97.91
2023-03-28T02:11:05.320Z,97.91
2023-03-28T02:12:05.332Z,98.01
2023-03-28T02:13:05.295Z,98.11
2023-03-28T02:14:05.379Z,98.11
2023-03-28T02:15:05.332Z,98.11
2023-03-28T02:16:05.308Z,98.22
2023-03-28T02:17:05.259Z,98.32
2023-03-28T02:18:05.341Z,98.37
2023-03-28T02:19:05.237Z,98.47
2023-03-28T02:20:05.261Z,98.47
2023-03-28T02:21:05.237Z,98.47
2023-03-28T02:22:05.221Z,98.58
2023-03-28T02:23:05.208Z,98.58
2023-03-28T02:24:05.221Z,98.68
2023-03-28T02:25:05.176Z,98.79
2023-03-28T02:26:05.171Z,98.89
2023-03-28T02:27:05.171Z,98.89
2023-03-28T02:28:05.173Z,98.89
2023-03-28T02:29:05.125Z,98.99
2023-03-28T02:30:05.122Z,99.10
2023-03-28T02:31:05.111Z,99.15
2023-03-28T02:32:05.230Z,99.25
2023-03-28T02:33:05.167Z,99.25
2023-03-28T02:34:05.096Z,99.35
2023-03-28T02:35:05.071Z,99.35
2023-03-28T02:36:05.139Z,99.46
2023-03-28T02:37:05.045Z,99.46
2023-03-28T02:38:05.072Z,99.56
2023-03-28T02:39:05.030Z,99.56
2023-03-28T02:40:05.082Z,99.56
2023-03-28T02:41:04.991Z,99.56
2023-03-28T02:42:05.018Z,99.77
2023-03-28T02:43:05.008Z,99.66
2023-03-28T02:44:04.969Z,99.77
2023-03-28T02:45:04.991Z,99.88
2023-03-28T02:46:05.000Z,99.98
2023-03-28T02:47:04.968Z,99.99
2023-03-28T02:48:04.946Z,99.99
2023-03-28T02:49:04.923Z,99.99
2023-03-28T02:50:04.908Z,99.99
2023-03-28T02:51:04.907Z,99.99
2023-03-28T02:52:04.915Z,99.99
2023-03-28T02:53:04.861Z,99.99
2023-03-28T02:54:04.860Z,99.99
2023-03-28T02:55:04.873Z,99.99
2023-03-28T02:56:04.872Z,99.99
2023-03-28T02:57:04.877Z,99.99
2023-03-28T02:58:04.836Z,99.99
2023-03-28T02:59:04.809Z,99.99
2023-03-28T03:00:04.802Z,99.99
2023-03-28T03:01:04.897Z,99.99
2023-03-28T03:02:04.807Z,99.99
2023-03-28T03:03:04.767Z,99.99
2023-03-28T03:04:04.826Z,99.99
2023-03-28T03:05:04.744Z,99.99
2023-03-28T03:06:04.740Z,99.99
2023-03-28T03:07:04.757Z,99.99
2023-03-28T03:08:04.711Z,99.99
2023-03-28T03:09:04.698Z,99.99
2023-03-28T03:10:04.700Z,99.99
2023-03-28T03:11:04.704Z,99.99
2023-03-28T03:12:04.670Z,99.99
2023-03-28T03:13:04.664Z,99.99
2023-03-28T03:14:04.649Z,99.99
2023-03-28T03:15:04.647Z,99.99
2023-03-28T03:16:04.681Z,99.99
2023-03-28T03:17:04.598Z,99.99
2023-03-28T03:18:04.696Z,99.99
2023-03-28T03:19:04.585Z,99.99
2023-03-28T03:20:04.575Z,99.99
2023-03-28T03:21:04.566Z,99.99
2023-03-28T03:22:04.557Z,99.99
2023-03-28T03:23:04.551Z,99.99
2023-03-28T03:24:04.566Z,99.99
2023-03-28T03:25:04.523Z,99.99
2023-03-28T03:26:04.510Z,99.99
2023-03-28T03:27:04.493Z,99.99
2023-03-28T03:28:04.500Z,99.99
2023-03-28T03:29:04.508Z,99.99
2023-03-28T03:30:04.469Z,99.99
2023-03-28T03:31:04.514Z,99.99
2023-03-28T03:32:04.444Z,99.99
2023-03-28T03:33:05.023Z,99.99
2023-03-28T03:34:04.440Z,99.99
2023-03-28T03:35:04.405Z,99.99
2023-03-28T03:36:04.428Z,99.99
2023-03-28T03:37:04.384Z,99.99
2023-03-28T03:38:04.388Z,99.99
2023-03-28T03:39:04.376Z,99.99
2023-03-28T03:40:04.383Z,99.99
2023-03-28T03:41:04.339Z,99.99
2023-03-28T03:42:04.338Z,99.99
2023-03-28T03:43:04.323Z,99.99
2023-03-28T03:44:04.307Z,99.99
2023-03-28T03:45:04.309Z,99.99
2023-03-28T03:46:04.535Z,99.99
2023-03-28T03:47:04.269Z,99.99
2023-03-28T03:48:04.321Z,99.99
2023-03-28T03:49:04.487Z,99.99
2023-03-28T03:50:04.242Z,99.99
2023-03-28T03:51:04.221Z,99.99
2023-03-28T03:52:04.213Z,99.99
2023-03-28T03:53:04.217Z,99.99
2023-03-28T03:54:04.209Z,99.99
2023-03-28T03:55:04.189Z,99.99
2023-03-28T03:56:04.175Z,99.99
2023-03-28T03:57:04.233Z,99.99
2023-03-28T03:58:04.224Z,99.99
2023-03-28T03:59:04.275Z,99.99
2023-03-28T04:00:04.163Z,99.99
2023-03-28T04:01:04.129Z,99.99
2023-03-28T04:02:04.176Z,99.99
2023-03-28T04:03:04.146Z,99.99
2023-03-28T04:04:04.176Z,99.99
2023-03-28T04:05:04.075Z,99.99
2023-03-28T04:06:04.082Z,99.99
2023-03-28T04:07:04.101Z,99.99
2023-03-28T04:08:04.047Z,99.99
2023-03-28T04:09:04.025Z,99.99
2023-03-28T04:10:04.020Z,99.99
2023-03-28T04:11:04.028Z,99.99
2023-03-28T04:12:04.007Z,99.99
2023-03-28T04:13:04.022Z,99.99
2023-03-28T04:14:03.976Z,99.99
2023-03-28T04:15:03.963Z,99.99
2023-03-28T04:16:04.050Z,99.99
2023-03-28T04:17:03.928Z,99.99
2023-03-28T04:18:06.217Z,99.99
2023-03-28T04:19:03.975Z,99.99
2023-03-28T04:20:03.914Z,99.99
2023-03-28T04:21:03.892Z,99.99
2023-03-28T04:22:03.878Z,99.99
2023-03-28T04:23:03.882Z,99.99
2023-03-28T04:24:03.866Z,99.99
2023-03-28T04:25:03.910Z,99.99
2023-03-28T04:26:03.851Z,99.99
2023-03-28T04:27:03.827Z,99.99
2023-03-28T04:28:03.825Z,99.99
2023-03-28T04:29:03.804Z,99.99
2023-03-28T04:30:03.805Z,99.99
2023-03-28T04:31:03.860Z,99.99
2023-03-28T04:32:03.782Z,99.99
2023-03-28T04:33:03.883Z,99.99
2023-03-28T04:34:03.759Z,99.99
2023-03-28T04:35:03.776Z,99.99
2023-03-28T04:36:03.916Z,99.99
2023-03-28T04:37:03.755Z,99.99
2023-03-28T04:38:03.698Z,99.99
2023-03-28T04:39:03.736Z,99.99
2023-03-28T04:40:03.686Z,99.99
2023-03-28T04:41:03.692Z,99.99
2023-03-28T04:42:03.698Z,99.99
2023-03-28T04:43:03.676Z,99.99
2023-03-28T04:44:03.678Z,99.99
2023-03-28T04:45:03.654Z,99.99
2023-03-28T04:46:03.857Z,99.99
2023-03-28T04:47:03.634Z,99.99
2023-03-28T04:48:03.742Z,99.99
2023-03-28T04:49:03.603Z,99.99
2023-03-28T04:50:03.566Z,99.99
2023-03-28T04:51:03.574Z,99.99
2023-03-28T04:52:03.570Z,99.99
2023-03-28T04:53:03.558Z,99.99
2023-03-28T04:54:03.515Z,99.99
2023-03-28T04:55:03.510Z,99.99
2023-03-28T04:56:03.536Z,99.99
2023-03-28T04:57:03.536Z,99.99
2023-03-28T04:58:03.496Z,99.99
2023-03-28T04:59:03.508Z,99.99
2023-03-28T05:00:03.456Z,99.99
2023-03-28T05:01:03.859Z,99.99
2023-03-28T05:02:03.469Z,99.99
2023-03-28T05:03:03.459Z,99.99
2023-03-28T05:04:03.431Z,99.99
2023-03-28T05:05:03.413Z,99.99
2023-03-28T05:06:03.396Z,99.99
2023-03-28T05:07:03.420Z,99.99
2023-03-28T05:08:03.389Z,99.99
2023-03-28T05:09:03.350Z,99.99
2023-03-28T05:10:03.362Z,99.99
2023-03-28T05:11:03.339Z,99.99
2023-03-28T05:12:03.350Z,99.99
2023-03-28T05:13:03.356Z,99.99
2023-03-28T05:14:03.302Z,99.99
2023-03-28T05:15:03.290Z,99.99
2023-03-28T05:16:03.336Z,99.99
2023-03-28T05:17:03.279Z,99.99
2023-03-28T05:18:03.470Z,99.99
2023-03-28T05:19:03.275Z,99.99
2023-03-28T05:20:03.243Z,99.99
2023-03-28T05:21:03.242Z,99.99
2023-03-28T05:22:03.223Z,99.99
2023-03-28T05:23:03.246Z,99.99
2023-03-28T05:24:03.193Z,99.99
2023-03-28T05:25:03.183Z,99.99
2023-03-28T05:26:03.172Z,99.99
2023-03-28T05:27:03.188Z,99.99
2023-03-28T05:28:03.167Z,99.99
2023-03-28T05:29:03.153Z,99.99
2023-03-28T05:30:03.130Z,99.99
2023-03-28T05:31:03.169Z,99.99
2023-03-28T05:32:03.166Z,99.99
2023-03-28T05:33:03.239Z,99.99
2023-03-28T05:34:03.090Z,99.99
2023-03-28T05:35:03.085Z,99.99
2023-03-28T05:36:03.094Z,99.99
2023-03-28T05:37:03.065Z,99.99
2023-03-28T05:38:03.360Z,99.99
2023-03-28T05:39:03.063Z,99.99
2023-03-28T05:40:03.016Z,99.99
2023-03-28T05:41:03.253Z,99.99
2023-03-28T05:42:03.004Z,99.99
2023-03-28T05:43:02.983Z,99.99
2023-03-28T05:44:03.015Z,99.99
2023-03-28T05:45:02.961Z,99.99
2023-03-28T05:46:03.025Z,99.99
2023-03-28T05:47:02.964Z,99.99
2023-03-28T05:48:02.985Z,99.99
2023-03-28T05:49:02.935Z,99.99
2023-03-28T05:50:02.917Z,99.99
2023-03-28T05:51:02.902Z,99.99
2023-03-28T05:52:02.874Z,99.99
2023-03-28T05:53:02.875Z,99.99
2023-03-28T05:54:02.911Z,99.99
2023-03-28T05:55:02.865Z,99.99
2023-03-28T05:56:02.820Z,99.99
2023-03-28T05:57:02.864Z,99.99
2023-03-28T05:58:02.821Z,99.99
2023-03-28T05:59:02.827Z,99.99
2023-03-28T06:00:02.816Z,99.99
2023-03-28T06:01:02.851Z,99.99
2023-03-28T06:02:02.779Z,99.99
2023-03-28T06:03:02.916Z,99.99
2023-03-28T06:04:02.809Z,99.99
2023-03-28T06:05:02.835Z,99.99
2023-03-28T06:06:02.752Z,99.99
2023-03-28T06:07:03.231Z,99.99
2023-03-28T06:08:02.717Z,99.99
2023-03-28T06:09:02.695Z,99.99
2023-03-28T06:10:02.681Z,99.99
2023-03-28T06:11:02.688Z,99.99
2023-03-28T06:12:02.712Z,99.99
2023-03-28T06:13:02.650Z,99.99
2023-03-28T06:14:02.654Z,99.99
2023-03-28T06:15:02.660Z,99.99
2023-03-28T06:16:02.622Z,99.99
2023-03-28T06:17:02.665Z,99.99
2023-03-28T06:18:02.660Z,99.99
2023-03-28T06:19:16.379Z,99.99
2023-03-28T06:20:03.602Z,99.99
2023-03-28T06:21:02.807Z,99.99
2023-03-28T06:22:02.834Z,99.99
2023-03-28T06:23:02.584Z,99.99
2023-03-28T06:24:02.525Z,99.99
2023-03-28T06:25:02.514Z,99.99
2023-03-28T06:26:02.492Z,99.99
2023-03-28T06:27:02.521Z,99.99
2023-03-28T06:28:02.510Z,99.99
2023-03-28T06:29:02.535Z,99.99
2023-03-28T06:30:02.483Z,99.99
2023-03-28T06:31:02.835Z,99.99
2023-03-28T06:32:02.443Z,99.99
2023-03-28T06:33:02.462Z,99.99
2023-03-28T06:34:02.429Z,99.99
2023-03-28T06:35:02.425Z,99.99
2023-03-28T06:36:02.398Z,99.99
2023-03-28T06:37:02.397Z,99.99
2023-03-28T06:38:02.524Z,99.99
2023-03-28T06:39:02.388Z,99.99
2023-03-28T06:40:02.381Z,99.99
2023-03-28T06:41:02.661Z,99.99
2023-03-28T06:42:02.362Z,99.99
2023-03-28T06:43:02.319Z,99.99
2023-03-28T06:44:02.318Z,99.99
2023-03-28T06:45:02.305Z,99.99
2023-03-28T06:46:02.291Z,99.99
2023-03-28T06:47:02.285Z,99.99
2023-03-28T06:48:02.289Z,99.99
2023-03-28T06:49:02.279Z,99.99
2023-03-28T06:50:02.254Z,99.99
2023-03-28T06:51:02.344Z,99.99
2023-03-28T06:52:02.207Z,99.99
2023-03-28T06:53:02.232Z,99.99
2023-03-28T06:54:02.197Z,99.99
2023-03-28T06:55:02.248Z,99.99
2023-03-28T06:56:02.162Z,99.99
2023-03-28T06:57:02.212Z,99.99
2023-03-28T06:58:02.176Z,99.99
2023-03-28T06:59:02.205Z,99.99
2023-03-28T07:00:02.133Z,99.99
2023-03-28T07:01:02.452Z,99.99
2023-03-28T07:02:02.409Z,99.99
2023-03-28T07:03:02.199Z,99.99
2023-03-28T07:04:02.232Z,99.99
2023-03-28T07:05:02.106Z,99.99
2023-03-28T07:06:02.068Z,99.99
2023-03-28T07:07:02.100Z,99.95
2023-03-28T07:08:02.068Z,99.80
2023-03-28T07:09:03.480Z,99.59
2023-03-28T07:10:02.033Z,99.48
2023-03-28T07:11:02.463Z,99.27
2023-03-28T07:12:02.026Z,99.27
2023-03-28T07:13:02.023Z,99.38
2023-03-28T07:14:02.045Z,99.23
2023-03-28T07:15:02.017Z,99.23
2023-03-28T07:16:02.042Z,98.82
2023-03-28T07:17:02.016Z,98.60
2023-03-28T07:18:02.028Z,98.50
2023-03-28T07:19:01.939Z,98.50
2023-03-28T07:20:01.930Z,98.46
2023-03-28T07:21:04.276Z,98.35
2023-03-28T07:22:01.914Z,98.46
2023-03-28T07:23:01.911Z,98.25
2023-03-28T07:24:01.873Z,98.14
2023-03-28T07:25:01.889Z,97.94
2023-03-28T07:26:01.851Z,97.72
2023-03-28T07:27:14.998Z,97.41
2023-03-28T07:28:02.801Z,97.47
2023-03-28T07:29:01.813Z,97.47
2023-03-28T07:30:01.791Z,97.27
2023-03-28T07:31:02.147Z,97.27
2023-03-28T07:32:01.838Z,97.16
2023-03-28T07:33:13.019Z,96.75
2023-03-28T07:34:02.867Z,96.95
2023-03-28T07:35:01.754Z,96.75
2023-03-28T07:36:01.805Z,96.59
2023-03-28T07:37:01.717Z,96.70
2023-03-28T07:38:01.718Z,96.70
2023-03-28T07:39:01.699Z,96.59
2023-03-28T07:40:01.696Z,96.18
2023-03-28T07:41:01.979Z,96.08
2023-03-28T07:42:01.703Z,96.14
2023-03-28T07:43:01.687Z,96.24
2023-03-28T07:44:01.641Z,95.93
2023-03-28T07:45:01.648Z,95.93
2023-03-28T07:46:01.649Z,95.93
2023-03-28T07:47:01.888Z,95.51
2023-03-28T07:48:01.629Z,94.95
2023-03-28T07:49:01.671Z,94.95
2023-03-28T07:50:01.573Z,95.26
2023-03-28T07:51:01.670Z,95.36
2023-03-28T07:52:01.552Z,94.74
2023-03-28T07:53:01.547Z,94.43
2023-03-28T07:54:01.556Z,94.49
2023-03-28T07:55:01.594Z,94.59
2023-03-28T07:56:01.513Z,94.38
2023-03-28T07:57:01.521Z,93.55
2023-03-28T07:58:01.482Z,93.45
2023-03-28T07:59:01.487Z,93.10
2023-03-28T08:00:01.509Z,92.68
2023-03-28T08:01:01.667Z,92.47
2023-03-28T08:02:01.430Z,92.26
2023-03-28T08:03:01.507Z,92.78
2023-03-28T08:04:01.525Z,92.57
2023-03-28T08:05:01.462Z,92.26
2023-03-28T08:06:01.602Z,92.16
2023-03-28T08:07:01.393Z,92.16
2023-03-28T08:08:01.371Z,91.85
2023-03-28T08:09:01.404Z,91.70
2023-03-28T08:10:01.380Z,91.39
2023-03-28T08:11:01.508Z,91.28
2023-03-28T08:12:01.315Z,91.39
2023-03-28T08:13:01.344Z,91.24
2023-03-28T08:14:01.302Z,90.93
2023-03-28T08:15:01.338Z,91.03
2023-03-28T08:16:01.371Z,90.31
2023-03-28T08:17:01.326Z,89.89
2023-03-28T08:18:01.326Z,90.00
2023-03-28T08:19:10.699Z,90.27
2023-03-28T08:20:02.227Z,90.58
2023-03-28T08:21:01.448Z,90.75
2023-03-28T08:22:01.223Z,90.33
2023-03-28T08:23:01.226Z,88.98
2023-03-28T08:24:01.222Z,89.09
2023-03-28T08:25:01.204Z,89.09
2023-03-28T08:26:01.224Z,88.36
2023-03-28T08:27:01.190Z,88.36
2023-03-28T08:28:01.131Z,88.15
2023-03-28T08:29:01.156Z,87.74
2023-03-28T08:30:01.108Z,87.95
2023-03-28T08:31:01.388Z,88.15
2023-03-28T08:32:01.133Z,88.32
2023-03-28T08:33:01.129Z,88.11
2023-03-28T08:34:01.083Z,88.63
2023-03-28T08:35:01.077Z,88.63
2023-03-28T08:36:01.082Z,87.66
2023-03-28T08:37:01.087Z,87.14
2023-03-28T08:38:01.222Z,86.62
2023-03-28T08:39:01.019Z,86.52
2023-03-28T08:40:01.035Z,87.04
2023-03-28T08:41:01.353Z,87.14
2023-03-28T08:42:00.984Z,86.10
2023-03-28T08:43:00.969Z,86.52
2023-03-28T08:44:00.960Z,86.17
2023-03-28T08:45:00.938Z,87.41
2023-03-28T08:46:00.967Z,86.54
2023-03-28T08:47:00.951Z,85.71
2023-03-28T08:48:00.958Z,85.19
2023-03-28T08:49:00.937Z,83.99
2023-03-28T08:50:00.936Z,84.20
2023-03-28T08:51:01.105Z,84.06
2023-03-28T08:52:00.892Z,84.78
2023-03-28T08:53:00.877Z,85.19
2023-03-28T08:54:00.867Z,84.47
2023-03-28T08:55:00.845Z,83.44
2023-03-28T08:56:00.845Z,82.81
2023-03-28T08:57:00.865Z,82.92
2023-03-28T08:58:00.824Z,83.75
2023-03-28T08:59:00.800Z,83.64
2023-03-28T09:00:00.799Z,83.64
2023-03-28T09:01:01.017Z,83.23
2023-03-28T09:02:00.870Z,82.26
2023-03-28T09:03:00.837Z,82.05
2023-03-28T09:04:00.910Z,81.37
2023-03-28T09:05:21.618Z,81.47
2023-03-28T09:06:01.967Z,80.74
2023-03-28T09:07:00.712Z,80.85
2023-03-28T09:08:00.745Z,81.33
2023-03-28T09:09:00.683Z,81.84
2023-03-28T09:10:00.664Z,81.74
2023-03-28T09:11:00.835Z,80.77
2023-03-28T09:12:00.646Z,81.60
2023-03-28T09:13:00.680Z,81.67
2023-03-28T09:14:00.637Z,80.39
2023-03-28T09:15:00.673Z,79.25
2023-03-28T09:16:00.694Z,78.53
2023-03-28T09:17:00.608Z,78.05
2023-03-28T09:18:00.617Z,78.36
2023-03-28T09:19:00.615Z,77.70
2023-03-28T09:20:00.573Z,78.84
2023-03-28T09:21:00.820Z,79.05
2023-03-28T09:22:12.446Z,80.15
2023-03-28T09:23:01.527Z,78.91
2023-03-28T09:24:00.949Z,78.80
2023-03-28T09:25:00.539Z,79.63
2023-03-28T09:26:01.814Z,79.15
2023-03-28T09:27:00.489Z,78.74
2023-03-28T09:28:00.497Z,79.19
2023-03-28T09:29:00.477Z,79.29
2023-03-28T09:30:00.452Z,79.80
2023-03-28T09:31:00.678Z,78.91
2023-03-28T09:32:00.496Z,77.56
2023-03-28T09:33:00.440Z,77.05
2023-03-28T09:34:00.496Z,77.64
2023-03-28T09:35:00.394Z,77.43
2023-03-28T09:36:00.469Z,77.43
2023-03-28T09:37:00.404Z,77.33
2023-03-28T09:38:00.370Z,78.88
2023-03-28T09:39:00.340Z,77.50
2023-03-28T09:40:00.360Z,77.29
2023-03-28T09:41:00.512Z,75.53
2023-03-28T09:42:00.328Z,74.81
2023-03-28T09:43:00.301Z,73.47
2023-03-28T09:44:00.428Z,73.08
2023-03-28T09:45:00.509Z,74.12
2023-03-28T09:46:00.506Z,74.53
2023-03-28T09:47:00.244Z,75.05
2023-03-28T09:48:00.367Z,74.22
2023-03-28T09:49:00.392Z,74.33
2023-03-28T09:50:12.041Z,74.63
2023-03-28T09:51:01.498Z,75.15
2023-03-28T09:52:00.208Z,75.36
2023-03-28T09:53:00.189Z,75.15
2023-03-28T09:54:00.190Z,73.91
2023-03-28T09:55:00.164Z,74.02
2023-03-28T09:56:04.284Z,72.81
2023-03-28T09:57:00.199Z,73.94
2023-03-28T09:58:00.186Z,74.05
2023-03-28T09:59:00.111Z,72.78
2023-03-28T10:00:00.130Z,71.84
2023-03-28T10:01:00.312Z,71.12
2023-03-28T10:02:00.286Z,70.40
2023-03-28T10:03:00.147Z,71.61
2023-03-28T10:04:00.179Z,71.61
2023-03-28T10:05:00.313Z,71.88
2023-03-28T10:06:00.052Z,71.06
2023-03-28T10:07:00.060Z,69.92
2023-03-28T10:08:00.057Z,69.12
2023-03-28T10:09:00.016Z,69.43
2023-03-28T10:10:00.029Z,69.71
2023-03-28T10:11:00.162Z,67.75
2023-03-28T10:12:00.023Z,66.00
2023-03-28T10:12:59.961Z,64.76
2023-03-28T10:13:59.962Z,64.58
2023-03-28T10:14:59.992Z,64.78
2023-03-28T10:15:59.967Z,64.89
2023-03-28T10:16:59.949Z,66.96
2023-03-28T10:17:59.965Z,66.96
2023-03-28T10:18:59.924Z,67.68
2023-03-28T10:19:59.930Z,67.78
2023-03-28T10:21:00.059Z,67.68
2023-03-28T10:21:59.876Z,67.19
2023-03-28T10:23:00.656Z,67.91
2023-03-28T10:23:59.847Z,68.95
2023-03-28T10:24:59.836Z,70.29
2023-03-28T10:25:59.834Z,68.95
2023-03-28T10:26:59.834Z,68.82
2023-03-28T10:27:59.822Z,69.43
2023-03-28T10:29:59.788Z,69.40
2023-03-28T10:31:00.007Z,68.54
2023-03-28T10:31:59.796Z,68.54
2023-03-28T10:32:59.846Z,68.85
2023-03-28T10:33:59.758Z,67.61
2023-03-28T10:34:59.733Z,67.21
2023-03-28T10:35:59.818Z,67.61
2023-03-28T10:36:59.691Z,68.41
2023-03-28T10:37:59.687Z,68.62
2023-03-28T10:38:59.736Z,69.44
2023-03-28T10:39:59.712Z,68.10
2023-03-28T10:40:59.831Z,68.00
2023-03-28T10:41:59.650Z,67.38
2023-03-28T10:42:59.634Z,67.38
2023-03-28T10:43:59.643Z,66.86
2023-03-28T10:44:59.615Z,67.07
2023-03-28T10:45:59.622Z,67.17
2023-03-28T10:46:59.594Z,67.00
2023-03-28T10:47:59.644Z,67.61
2023-03-28T10:48:59.562Z,67.72
2023-03-28T10:49:59.558Z,68.27
2023-03-28T10:50:59.753Z,68.78
2023-03-28T10:51:59.533Z,69.40
2023-03-28T10:52:59.506Z,68.88
2023-03-28T10:53:59.531Z,68.78
2023-03-28T10:54:59.506Z,68.99
2023-03-28T10:56:00.033Z,69.61
2023-03-28T10:56:59.519Z,69.82
2023-03-28T10:57:59.477Z,68.99
2023-03-28T10:58:59.452Z,68.99
2023-03-28T10:59:59.480Z,69.82
2023-03-28T11:00:59.625Z,69.95
2023-03-28T11:01:59.462Z,71.09
2023-03-28T11:02:59.489Z,70.54
2023-03-28T11:03:59.513Z,69.61
2023-03-28T11:04:59.389Z,69.61
2023-03-28T11:06:08.892Z,69.89
2023-03-28T11:07:00.384Z,67.41
2023-03-28T11:07:59.356Z,68.03
2023-03-28T11:08:59.329Z,67.21
2023-03-28T11:09:59.338Z,68.13
2023-03-28T11:10:59.586Z,68.62
2023-03-28T11:11:59.306Z,67.58
2023-03-28T11:12:59.387Z,66.66
2023-03-28T11:13:59.342Z,67.27
2023-03-28T11:14:59.261Z,67.58
2023-03-28T11:15:59.388Z,66.14
2023-03-28T11:16:59.257Z,65.39
2023-03-28T11:17:59.405Z,64.28
2023-03-28T11:18:59.221Z,65.83
2023-03-28T11:19:59.221Z,65.21
2023-03-28T11:20:59.497Z,64.07
2023-03-28T11:21:59.203Z,63.77
2023-03-28T11:23:05.757Z,63.87
2023-03-28T11:24:00.178Z,63.97
2023-03-28T11:24:59.162Z,63.46
2023-03-28T11:25:59.151Z,62.66
2023-03-28T11:27:12.471Z,64.42
2023-03-28T11:28:00.157Z,65.94
2023-03-28T11:28:59.111Z,64.90
2023-03-28T11:29:59.117Z,64.70
2023-03-28T11:30:59.329Z,65.11
2023-03-28T11:31:59.206Z,65.42
2023-03-28T11:32:59.139Z,66.01
2023-03-28T11:33:59.073Z,65.08
2023-03-28T11:34:59.033Z,64.77
2023-03-28T11:35:59.127Z,64.77
2023-03-28T11:36:59.024Z,64.87
2023-03-28T11:37:59.020Z,64.56
2023-03-28T11:38:58.987Z,64.15
2023-03-28T11:39:59.026Z,63.74
2023-03-28T11:40:59.171Z,64.39
2023-03-28T11:41:58.961Z,64.87
2023-03-28T11:42:58.957Z,64.04
2023-03-28T11:43:58.943Z,63.15
2023-03-28T11:44:58.974Z,64.87
2023-03-28T11:45:58.962Z,63.35
2023-03-28T11:46:58.910Z,64.15
2023-03-28T11:47:58.944Z,64.87
2023-03-28T11:48:58.929Z,65.59
2023-03-28T11:49:58.887Z,66.01
2023-03-28T11:50:59.040Z,65.98
2023-03-28T11:51:58.872Z,65.15
2023-03-28T11:52:58.833Z,64.61
2023-03-28T11:53:58.849Z,64.50
2023-03-28T11:54:58.838Z,63.34
2023-03-28T11:55:59.034Z,62.62
2023-03-28T11:56:58.836Z,62.72
2023-03-28T11:57:58.785Z,63.72
2023-03-28T11:58:58.776Z,63.75
2023-03-28T11:59:58.819Z,62.82
2023-03-28T12:00:59.015Z,62.82
2023-03-28T12:01:58.792Z,62.52
2023-03-28T12:02:58.915Z,63.03
2023-03-28T12:03:58.831Z,64.37
2023-03-28T12:04:58.696Z,62.82
2023-03-28T12:06:04.483Z,62.34
2023-03-28T12:07:03.034Z,62.78
2023-03-28T12:07:58.687Z,64.22
2023-03-28T12:08:58.692Z,64.02
2023-03-28T12:09:58.643Z,64.50
2023-03-28T12:10:59.044Z,63.68
2023-03-28T12:11:58.622Z,63.89
2023-03-28T12:12:58.675Z,64.40
2023-03-28T12:14:10.995Z,63.89
2023-03-28T12:14:59.579Z,63.47
2023-03-28T12:15:58.575Z,64.06
2023-03-28T12:16:58.719Z,63.85
2023-03-28T12:17:58.641Z,62.90
2023-03-28T12:18:58.573Z,62.79
2023-03-28T12:19:58.528Z,63.52
2023-03-28T12:20:58.657Z,64.31
2023-03-28T12:21:58.500Z,64.07
2023-03-28T12:22:58.516Z,62.71
2023-03-28T12:23:58.683Z,63.94
2023-03-28T12:24:58.485Z,64.22
2023-03-28T12:25:58.456Z,63.20
2023-03-28T12:26:58.448Z,63.27
2023-03-28T12:27:58.451Z,60.73
2023-03-28T12:28:58.459Z,61.04
2023-03-28T12:29:58.420Z,61.35
2023-03-28T12:30:58.862Z,60.24
2023-03-28T12:31:58.439Z,60.09
2023-03-28T12:32:58.459Z,61.43
2023-03-28T12:33:58.386Z,61.02
2023-03-28T12:34:58.348Z,61.25
2023-03-28T12:35:58.391Z,61.66
2023-03-28T12:36:58.425Z,61.46
2023-03-28T12:37:58.345Z,63.10
2023-03-28T12:38:58.359Z,62.35
2023-03-28T12:39:58.325Z,62.46
2023-03-28T12:40:58.487Z,61.09
2023-03-28T12:41:58.364Z,60.27
2023-03-28T12:42:58.267Z,60.65
2023-03-28T12:43:58.299Z,59.31
2023-03-28T12:44:58.283Z,59.80
2023-03-28T12:45:58.251Z,59.50
2023-03-28T12:46:58.215Z,59.67
2023-03-28T12:47:58.298Z,60.80
2023-03-28T12:48:58.229Z,59.44
2023-03-28T12:49:58.308Z,59.03
2023-03-28T12:50:58.429Z,57.10
2023-03-28T12:51:58.184Z,56.49
2023-03-28T12:52:58.144Z,57.16